Flight Track Log - Related Links

Times and Time Zones

All times are in EDT time to prevent confusion due to time zone crossing. See the EJA826 flight status page for this flight to view local times or setup timezone preferences in your user account.

Time Position Orientation Groundspeed Altitude Reporting Facility
EDT Latitude Longitude Course Direction KTS MPH feet Rate Location/Type
Thu 03:45:33 PM 35.5964 -106.1075 265° West 156 180 7,900  Level Albuquerque Center
Thu 03:46:35 PM 35.5408 -106.1511 213° Southwest 193 222 11,900 3,290 Climbing Albuquerque Center
Thu 03:47:37 PM 35.5275 -106.2244 257° West 225 259 14,700 2,565 Climbing Albuquerque Center
Thu 03:48:39 PM 35.5242 -106.3153 267° West 259 298 17,200 2,565 Climbing Albuquerque Center
Thu 03:49:41 PM 35.5225 -106.4111 269° West 276 318 20,000 2,758 Climbing Albuquerque Center
Thu 03:50:00 PM 35.5078 -106.7341 265° West  Level FlightAware Approximate
Thu 03:50:43 PM 35.5219 -106.5089 270° West 284 327 22,900  Level Albuquerque Center
Thu 03:51:46 PM 35.5208 -106.6097 269° West 293 337 25,500 2,323 Climbing Albuquerque Center
Thu 03:52:47 PM 35.5203 -106.7406 270° West 316 364 27,700 1,220 Climbing Albuquerque Center
Thu 03:53:49 PM 35.5181 -106.8628 269° West 350 403 28,000 1,016 Climbing Albuquerque Center
Thu 03:54:51 PM 35.5164 -106.9933 269° West 377 434 29,800 1,694 Climbing Albuquerque Center
Thu 03:55:53 PM 35.5144 -107.1206 269° West 378 435 31,500 1,645 Climbing Albuquerque Center
Thu 03:56:55 PM 35.5131 -107.2669 269° West 374 430 33,200 1,200 Climbing Albuquerque Center
Thu 03:57:58 PM 35.5106 -107.3903 269° West 374 430 34,000 384 Climbing Albuquerque Center
Thu 03:59:00 PM 35.5081 -107.5442 269° West 397 457 34,000  Level Albuquerque Center
Thu 04:00:02 PM 35.5047 -107.6786 268° West 408 470 34,000  Level Albuquerque Center
Thu 04:01:04 PM 35.5019 -107.8375 269° West 414 476 34,000  Level Albuquerque Center
Thu 04:02:06 PM 35.4989 -107.9703 268° West 409 471 34,000  Level Albuquerque Center
Thu 04:03:08 PM 35.4950 -108.1008 268° West 402 463 34,000 726 Level Albuquerque Center
Thu 04:04:10 PM 35.4922 -108.2497 269° West 394 453 35,500 968 Climbing Albuquerque Center
Thu 04:05:12 PM 35.4903 -108.3778 269° West 390 449 36,000 242 Climbing Albuquerque Center
Thu 04:06:14 PM 35.4858 -108.5303 268° West 396 456 36,000  Level Albuquerque Center
Thu 04:07:16 PM 35.4819 -108.6583 268° West 394 453 36,000  Level Albuquerque Center
Thu 04:08:18 PM 35.4778 -108.8056 268° West 387 445 36,000  Level Albuquerque Center
Thu 04:09:20 PM 35.4708 -108.9286 266° West 379 436 36,000  Level Albuquerque Center
Thu 04:10:22 PM 35.4550 -109.0714 262° West 377 434 36,000  Level Albuquerque Center
Thu 04:11:24 PM 35.4428 -109.1928 263° West 376 433 36,000  Level Albuquerque Center
Thu 04:12:26 PM 35.4294 -109.3150 262° West 376 433 36,000  Level Albuquerque Center
Thu 04:13:28 PM 35.4144 -109.4572 263° West 375 432 36,000  Level Albuquerque Center
Thu 04:14:30 PM 35.3997 -109.5778 262° West 373 429 36,000  Level Albuquerque Center
Thu 04:15:32 PM 35.3833 -109.7175 262° West 372 428 36,000  Level Albuquerque Center
Thu 04:16:34 PM 35.3703 -109.8364 262° West 370 426 36,000  Level Albuquerque Center
Thu 04:17:36 PM 35.3536 -109.9753 262° West 368 423 36,000  Level Albuquerque Center
Thu 04:18:39 PM 35.3392 -110.0947 262° West 368 423 36,000 -288 Level Albuquerque Center
Thu 04:19:41 PM 35.3219 -110.2353 261° West 371 427 35,400 -871 Descending Albuquerque Center
Thu 04:20:43 PM 35.3064 -110.3619 261° West 385 443 34,200 -1,258 Descending Albuquerque Center
Thu 04:21:45 PM 35.2881 -110.5142 262° West 401 461 32,800 -1,210 Descending Albuquerque Center
Thu 04:22:47 PM 35.2733 -110.6456 262° West 405 466 31,700 -1,355 Descending Albuquerque Center
Thu 04:23:49 PM 35.2544 -110.7956 261° West 402 463 30,000 -1,548 Descending Albuquerque Center
Thu 04:24:51 PM 35.2367 -110.9253 261° West 404 465 28,500 -1,500 Descending Albuquerque Center
Thu 04:25:53 PM 35.1769 -111.0314 235° Southwest 403 464 26,900 -1,597 Descending Albuquerque Center
Thu 04:26:55 PM 35.0819 -111.1242 219° Southwest 400 460 25,200 -1,403 Descending Albuquerque Center
Thu 04:27:57 PM 34.9953 -111.2039 217° Southwest 394 453 24,000 -581 Descending Albuquerque Center
Thu 04:28:59 PM 34.9117 -111.2792 216° Southwest 380 437 24,000  Level Albuquerque Center
Thu 04:30:01 PM 34.8281 -111.3553 217° Southwest 376 433 24,000 -194 Level Albuquerque Center
Thu 04:31:03 PM 34.7297 -111.4453 217° Southwest 372 428 23,600 -1,113 Descending Albuquerque Center
Thu 04:32:05 PM 34.6511 -111.5164 217° Southwest 359 413 21,700 -1,806 Descending Albuquerque Center
Thu 04:34:09 PM 34.4944 -111.6581 217° Southwest 352 405 18,000 -2,000 Descending Albuquerque Center
Thu 04:35:11 PM 34.4194 -111.7269 217° Southwest 345 397 15,500 -2,081 Descending Albuquerque Center
Thu 04:36:13 PM 34.3542 -111.7839 216° Southwest 301 346 13,700 -1,776 Descending Albuquerque Center
Thu 04:37:16 PM 34.2775 -111.8519 216° Southwest 289 333 11,800 -1,306 Descending Albuquerque Center
Thu 04:38:17 PM 34.2161 -111.9069 217° Southwest 282 325 11,000 -585 Descending Albuquerque Center
Thu 04:39:19 PM 34.1433 -111.9253 192° South 276 318 10,600 -919 Descending Albuquerque Center
Thu 04:40:21 PM 34.0700 -111.9303 183° South 267 307 9,100 -1,548 Descending Albuquerque Center
Thu 04:41:23 PM 33.9983 -111.9819 211° Southwest 255 293 7,400 -968 Descending Albuquerque Center
Thu 04:42:25 PM 33.9492 -112.0231 215° Southwest 219 252 7,100 -303 Descending Albuquerque Center
Thu 04:43:02 PM 33.9153 -112.0586 221° Southwest 277 319 6,900 -581 Descending Albuquerque Center
Thu 04:43:27 PM 33.8953 -112.0667 198° South 231 266 6,500 -982 Descending Albuquerque Center
Thu 04:43:57 PM 33.8642 -112.0947 217° Southwest 253 291 6,000 -774 Descending Albuquerque Center
Thu 04:44:29 PM 33.8403 -112.1106 209° Southwest 237 273 5,700 -896 Descending Albuquerque Center
Thu 04:45:04 PM 33.8022 -112.1417 214° Southwest 233 268 5,000 -677 Descending Albuquerque Center
Thu 04:45:31 PM 33.7872 -112.1525 211° Southwest 231 266 5,000  Level Albuquerque Center
Thu 04:46:04 PM 33.7531 -112.1772 211° Southwest 190 219 5,000 -293 Level Albuquerque Center
Thu 04:46:53 PM 33.7161 -112.1969 204° Southwest 175 201 4,600 -264 Descending Albuquerque Center
Thu 04:47:35 PM 33.6825 -112.2119 200° South 193 222 4,600 -393 Level Albuquerque Center
Thu 04:47:54 PM 33.6647 -112.2203 201° Southwest 191 220 4,200 -968 Descending Albuquerque Center
Thu 04:48:37 PM 33.6361 -112.2303 196° South 178 205 3,600 -896 Descending Albuquerque Center
Thu 04:49:01 PM 33.6197 -112.2419 211° Southwest 152 175 3,200 -871 Descending Albuquerque Center
Thu 04:49:39 PM 33.6006 -112.2508 201° Southwest 146 168 2,700 -787 Descending Albuquerque Center
Thu 04:50:02 PM 33.5831 -112.2642 212° Southwest 143 165 2,400 -581 Descending Albuquerque Center
Thu 04:50:41 PM 33.5672 -112.2714 201° Southwest 136 157 2,100 -800 Descending Albuquerque Center
Thu 04:51:02 PM 33.5522 -112.2822 211° Southwest 130 150 1,600 -871 Descending Albuquerque Center
Thu 04:51:43 PM 33.5358 -112.2892 199° South 127 146 1,200 -585 Descending Albuquerque Center

Login

Don't have an account? Register now (free) for customized features, flight alerts, and more!